createdAt,value
2022-08-17T00:00:43.800Z,23.01
2022-08-17T00:03:10.748Z,23.03
2022-08-17T00:05:44.644Z,23.03
2022-08-17T00:08:16.240Z,23.04
2022-08-17T00:10:46.639Z,22.97
2022-08-17T00:13:32.629Z,22.91
2022-08-17T00:16:08.714Z,22.95
2022-08-17T00:19:01.269Z,22.99
2022-08-17T00:22:28.699Z,23.01
2022-08-17T00:24:20.307Z,23.00
2022-08-17T00:26:48.884Z,22.99
2022-08-17T00:29:20.086Z,22.97
2022-08-17T00:31:50.170Z,22.96
2022-08-17T00:34:19.355Z,22.93
2022-08-17T00:36:47.826Z,22.89
2022-08-17T00:39:16.897Z,22.84
2022-08-17T00:41:45.898Z,22.79
2022-08-17T00:44:15.925Z,22.77
2022-08-17T00:46:45.360Z,22.74
2022-08-17T00:49:16.074Z,22.71
2022-08-17T00:51:59.939Z,22.67
2022-08-17T00:54:41.814Z,22.62
2022-08-17T00:57:23.849Z,22.60
2022-08-17T01:00:03.080Z,22.54
2022-08-17T01:02:50.872Z,22.49
2022-08-17T01:05:25.810Z,22.43
2022-08-17T01:07:55.665Z,22.40
2022-08-17T01:10:58.385Z,22.39
2022-08-17T01:13:26.624Z,22.37
2022-08-17T01:16:06.945Z,22.34
2022-08-17T01:18:36.468Z,22.32
2022-08-17T01:21:22.788Z,22.30
2022-08-17T01:23:51.805Z,22.29
2022-08-17T01:26:20.679Z,22.30
2022-08-17T01:28:54.242Z,22.30
2022-08-17T01:31:29.509Z,22.30
2022-08-17T01:34:05.297Z,22.29
2022-08-17T01:36:34.584Z,22.28
2022-08-17T01:39:05.077Z,22.28
2022-08-17T01:41:35.142Z,22.27
2022-08-17T01:44:07.074Z,22.25
2022-08-17T01:46:37.403Z,22.22
2022-08-17T01:49:10.892Z,22.19
2022-08-17T01:51:39.980Z,22.19
2022-08-17T01:54:13.332Z,22.19
2022-08-17T01:56:47.259Z,22.17
2022-08-17T01:59:19.905Z,22.13
2022-08-17T02:01:49.369Z,22.09
2022-08-17T02:04:18.046Z,22.05
2022-08-17T02:06:54.225Z,21.99
2022-08-17T02:09:29.895Z,21.91
2022-08-17T02:12:37.668Z,21.84
2022-08-17T02:14:50.684Z,21.79
2022-08-17T02:17:20.320Z,21.76
2022-08-17T02:19:49.190Z,21.75
2022-08-17T02:22:18.623Z,21.73
2022-08-17T02:24:59.673Z,21.73
2022-08-17T02:27:31.174Z,21.72
2022-08-17T02:30:03.074Z,21.70
2022-08-17T02:32:31.561Z,21.69
2022-08-17T02:35:01.332Z,21.68
2022-08-17T02:37:31.115Z,21.67
2022-08-17T02:39:59.931Z,21.64
2022-08-17T02:42:53.971Z,21.65
2022-08-17T02:45:24.667Z,21.64
2022-08-17T02:47:53.434Z,21.62
2022-08-17T02:50:25.032Z,21.59
2022-08-17T02:52:57.276Z,21.57
2022-08-17T02:55:37.011Z,21.58
2022-08-17T02:58:06.390Z,21.58
2022-08-17T03:00:41.737Z,21.59
2022-08-17T03:03:13.854Z,21.57
2022-08-17T03:05:42.896Z,21.57
2022-08-17T03:08:13.193Z,21.55
2022-08-17T03:10:43.917Z,21.55
2022-08-17T03:13:15.550Z,21.51
2022-08-17T03:15:45.997Z,21.43
2022-08-17T03:18:24.575Z,21.44
2022-08-17T03:20:58.159Z,21.41
2022-08-17T03:23:28.605Z,21.38
2022-08-17T03:25:59.726Z,21.35
2022-08-17T03:28:29.074Z,21.30
2022-08-17T03:30:57.703Z,21.27
2022-08-17T03:33:26.684Z,21.28
2022-08-17T03:35:55.570Z,21.30
2022-08-17T03:38:25.327Z,21.29
2022-08-17T03:40:59.513Z,21.30
2022-08-17T03:43:31.972Z,21.31
2022-08-17T03:46:33.877Z,21.33
2022-08-17T03:49:24.674Z,21.35
2022-08-17T03:52:15.932Z,21.28
2022-08-17T03:55:04.692Z,21.25
2022-08-17T03:57:39.226Z,21.24
2022-08-17T04:00:08.428Z,21.23
2022-08-17T04:02:43.226Z,21.25
2022-08-17T04:05:11.925Z,21.30
2022-08-17T04:07:41.699Z,21.35
2022-08-17T04:10:10.508Z,21.38
2022-08-17T04:12:49.062Z,21.38
2022-08-17T04:15:19.147Z,21.41
2022-08-17T04:17:48.636Z,21.46
2022-08-17T04:20:19.380Z,21.52
2022-08-17T04:23:10.477Z,21.54
2022-08-17T04:25:43.392Z,21.58
2022-08-17T04:28:15.881Z,21.61
2022-08-17T04:30:46.948Z,21.65
2022-08-17T04:33:24.542Z,21.67
2022-08-17T04:35:56.535Z,21.77
2022-08-17T04:38:29.556Z,21.86
2022-08-17T04:41:18.936Z,21.95
2022-08-17T04:43:49.620Z,22.01
2022-08-17T04:46:22.865Z,22.01
2022-08-17T04:48:56.563Z,22.03
2022-08-17T04:51:35.574Z,22.04
2022-08-17T04:54:11.456Z,22.07
2022-08-17T04:56:41.358Z,22.13
2022-08-17T04:59:18.737Z,22.18
2022-08-17T05:01:53.126Z,22.27
2022-08-17T05:04:34.616Z,22.35
2022-08-17T05:07:04.853Z,22.48
2022-08-17T05:09:33.753Z,22.99
2022-08-17T05:12:03.685Z,23.54
2022-08-17T05:14:33.201Z,24.51
2022-08-17T05:17:07.018Z,25.89
2022-08-17T05:19:36.080Z,27.25
2022-08-17T05:22:06.891Z,28.36
2022-08-17T05:24:42.618Z,28.71
2022-08-17T05:27:18.899Z,28.30
2022-08-17T05:29:47.903Z,27.67
2022-08-17T05:32:38.035Z,27.13
2022-08-17T05:35:09.276Z,26.65
2022-08-17T05:37:39.902Z,26.33
2022-08-17T05:40:08.862Z,26.12
2022-08-17T05:42:37.822Z,26.03
2022-08-17T05:45:07.318Z,26.27
2022-08-17T05:47:38.223Z,26.81
2022-08-17T05:50:10.046Z,27.86
2022-08-17T05:52:59.500Z,29.25
2022-08-17T05:55:49.781Z,30.68
2022-08-17T05:58:45.855Z,31.84
2022-08-17T06:01:56.818Z,32.88
2022-08-17T06:05:08.048Z,33.87
2022-08-17T06:07:49.746Z,34.45
2022-08-17T06:10:40.385Z,34.93
2022-08-17T06:13:30.023Z,35.33
2022-08-17T06:16:33.554Z,35.71
2022-08-17T06:19:21.487Z,36.04
2022-08-17T06:21:59.212Z,36.32
2022-08-17T06:24:52.123Z,36.59
2022-08-17T06:27:33.116Z,36.90
2022-08-17T06:30:19.399Z,37.10
2022-08-17T06:32:51.398Z,37.22
2022-08-17T06:35:33.589Z,37.44
2022-08-17T06:38:36.922Z,37.67
2022-08-17T06:41:28.732Z,37.93
2022-08-17T06:44:10.337Z,37.95
2022-08-17T06:46:49.156Z,37.96
2022-08-17T06:49:30.743Z,38.10
2022-08-17T06:52:45.712Z,38.28
2022-08-17T06:55:38.240Z,38.35
2022-08-17T06:58:21.872Z,38.40
2022-08-17T07:00:58.722Z,38.67
2022-08-17T07:03:46.609Z,38.87
2022-08-17T07:06:18.749Z,39.12
2022-08-17T07:09:08.289Z,39.28
2022-08-17T07:11:52.210Z,39.47
2022-08-17T07:14:30.190Z,39.68
2022-08-17T07:17:02.303Z,39.92
2022-08-17T07:19:38.762Z,40.06
2022-08-17T07:22:53.592Z,40.14
2022-08-17T07:25:22.140Z,40.06
2022-08-17T07:28:01.203Z,39.91
2022-08-17T07:30:42.967Z,39.86
2022-08-17T07:33:20.587Z,39.91
2022-08-17T07:35:50.467Z,39.93
2022-08-17T07:38:28.744Z,40.02
2022-08-17T07:41:06.909Z,40.02
2022-08-17T07:43:41.588Z,39.80
2022-08-17T07:46:43.418Z,39.65
2022-08-17T07:49:12.894Z,39.49
2022-08-17T07:51:46.181Z,39.40
2022-08-17T07:54:23.271Z,39.25
2022-08-17T07:56:56.540Z,39.14
2022-08-17T07:59:36.479Z,39.03
2022-08-17T08:02:17.361Z,39.21
2022-08-17T08:05:08.687Z,39.50
2022-08-17T08:07:51.090Z,39.74
2022-08-17T08:10:38.742Z,39.78
2022-08-17T08:13:23.125Z,39.68
2022-08-17T08:15:54.979Z,39.50
2022-08-17T08:18:56.067Z,39.34
2022-08-17T08:21:56.748Z,39.23
2022-08-17T08:24:37.164Z,39.15
2022-08-17T08:27:31.227Z,38.89
2022-08-17T08:30:08.980Z,38.61
2022-08-17T08:32:51.881Z,38.42
2022-08-17T08:35:48.690Z,38.46
2022-08-17T08:38:35.819Z,38.17
2022-08-17T08:41:32.538Z,37.67
2022-08-17T08:44:13.256Z,37.14
2022-08-17T08:47:00.647Z,36.75
2022-08-17T08:50:08.396Z,36.33
2022-08-17T08:53:33.435Z,35.97
2022-08-17T08:56:28.280Z,35.71
2022-08-17T08:59:08.356Z,35.54
2022-08-17T09:02:04.939Z,35.33
2022-08-17T09:05:13.003Z,35.27
2022-08-17T09:07:47.714Z,35.26
2022-08-17T09:10:31.330Z,35.27
2022-08-17T09:13:12.233Z,35.29
2022-08-17T09:15:45.578Z,35.33
2022-08-17T09:19:03.386Z,35.27
2022-08-17T09:21:19.776Z,35.17
2022-08-17T09:24:33.031Z,35.08
2022-08-17T09:27:12.047Z,35.18
2022-08-17T09:29:59.898Z,35.03
2022-08-17T09:32:34.949Z,35.16
2022-08-17T09:35:21.175Z,35.39
2022-08-17T09:38:06.392Z,35.73
2022-08-17T09:40:38.299Z,36.05
2022-08-17T09:43:44.709Z,36.12
2022-08-17T09:46:24.654Z,36.29
2022-08-17T09:49:16.669Z,36.20
2022-08-17T09:52:14.753Z,36.07
2022-08-17T09:54:47.919Z,36.05
2022-08-17T09:57:34.816Z,36.31
2022-08-17T10:00:16.721Z,36.47
2022-08-17T10:03:16.650Z,36.33
2022-08-17T10:06:13.749Z,36.07
2022-08-17T10:09:09.190Z,35.87
2022-08-17T10:12:20.718Z,35.69
2022-08-17T10:14:53.451Z,35.34
2022-08-17T10:17:43.969Z,35.13
2022-08-17T10:20:34.255Z,35.16
2022-08-17T10:23:48.715Z,35.20
2022-08-17T10:26:25.299Z,34.95
2022-08-17T10:28:59.071Z,34.72
2022-08-17T10:31:46.456Z,34.63
2022-08-17T10:34:38.716Z,34.44
2022-08-17T10:37:10.581Z,34.04
2022-08-17T10:39:52.573Z,33.81
2022-08-17T10:42:32.247Z,33.61
2022-08-17T10:45:26.638Z,33.62
2022-08-17T10:48:26.275Z,33.64
2022-08-17T10:50:59.525Z,33.47
2022-08-17T10:53:40.975Z,33.44
2022-08-17T10:56:12.954Z,33.31
2022-08-17T10:58:57.626Z,33.30
2022-08-17T11:01:43.935Z,33.26
2022-08-17T11:04:41.333Z,33.16
2022-08-17T11:07:42.204Z,33.08
2022-08-17T11:10:51.976Z,33.05
2022-08-17T11:13:50.777Z,32.80
2022-08-17T11:16:28.464Z,32.63
2022-08-17T11:19:19.313Z,32.63
2022-08-17T11:21:56.950Z,32.58
2022-08-17T11:24:43.386Z,32.46
2022-08-17T11:27:33.473Z,32.43
2022-08-17T11:30:33.785Z,32.49
2022-08-17T11:33:36.838Z,32.54
2022-08-17T11:36:22.565Z,32.62
2022-08-17T11:39:02.624Z,32.63
2022-08-17T11:42:18.598Z,32.62
2022-08-17T11:45:32.123Z,32.63
2022-08-17T11:48:43.237Z,32.58
2022-08-17T11:51:36.572Z,32.59
2022-08-17T11:54:32.373Z,32.60
2022-08-17T11:57:00.031Z,32.63
2022-08-17T11:59:37.455Z,32.63
2022-08-17T12:02:35.414Z,32.61
2022-08-17T12:05:12.515Z,32.52
2022-08-17T12:07:52.335Z,32.30
2022-08-17T12:10:34.699Z,32.25
2022-08-17T12:13:16.888Z,32.28
2022-08-17T12:15:50.170Z,32.21
2022-08-17T12:18:29.255Z,32.12
2022-08-17T12:21:15.859Z,32.14
2022-08-17T12:24:15.459Z,32.17
2022-08-17T12:26:53.224Z,32.19
2022-08-17T12:29:38.931Z,32.16
2022-08-17T12:32:17.879Z,32.17
2022-08-17T12:34:49.448Z,32.04
2022-08-17T12:37:26.221Z,31.96
2022-08-17T12:40:06.473Z,31.95
2022-08-17T12:42:39.627Z,31.99
2022-08-17T12:45:23.766Z,32.02
2022-08-17T12:48:09.770Z,31.99
2022-08-17T12:50:46.515Z,31.95
2022-08-17T12:53:25.582Z,31.99
2022-08-17T12:55:56.481Z,31.98
2022-08-17T12:58:48.547Z,31.99
2022-08-17T13:01:20.711Z,32.01
2022-08-17T13:04:29.579Z,32.03
2022-08-17T13:07:34.515Z,32.04
2022-08-17T13:10:04.528Z,32.06
2022-08-17T13:12:36.423Z,32.05
2022-08-17T13:15:05.741Z,32.02
2022-08-17T13:17:36.740Z,31.93
2022-08-17T13:20:15.349Z,31.93
2022-08-17T13:22:52.580Z,31.93
2022-08-17T13:25:24.174Z,31.99
2022-08-17T13:27:53.836Z,32.05
2022-08-17T13:30:28.943Z,32.13
2022-08-17T13:32:58.315Z,32.15
2022-08-17T13:35:48.296Z,32.17
2022-08-17T13:38:47.513Z,32.21
2022-08-17T13:41:35.328Z,32.21
2022-08-17T13:44:30.391Z,32.19
2022-08-17T13:47:00.688Z,32.15
2022-08-17T13:49:41.814Z,32.14
2022-08-17T13:52:41.485Z,32.10
2022-08-17T13:55:21.675Z,32.02
2022-08-17T13:58:06.617Z,31.96
2022-08-17T14:00:37.130Z,31.95
2022-08-17T14:03:06.653Z,31.98
2022-08-17T14:05:38.209Z,31.97
2022-08-17T14:08:07.453Z,31.95
2022-08-17T14:10:37.094Z,31.92
2022-08-17T14:13:07.333Z,31.94
2022-08-17T14:15:56.389Z,31.93
2022-08-17T14:18:54.301Z,31.92
2022-08-17T14:21:15.222Z,31.89
2022-08-17T14:23:52.686Z,31.91
2022-08-17T14:26:24.139Z,31.97
2022-08-17T14:28:56.473Z,32.02
2022-08-17T14:31:27.020Z,32.04
2022-08-17T14:33:56.008Z,31.96
2022-08-17T14:36:24.670Z,31.92
2022-08-17T14:38:54.353Z,31.87
2022-08-17T14:41:24.204Z,31.86
2022-08-17T14:43:53.849Z,31.76
2022-08-17T14:46:23.212Z,31.64
2022-08-17T14:48:57.330Z,31.57
2022-08-17T14:51:30.343Z,31.47
2022-08-17T14:53:59.209Z,31.41
2022-08-17T14:56:28.243Z,31.33
2022-08-17T14:59:04.403Z,31.27
2022-08-17T15:01:33.286Z,31.23
2022-08-17T15:04:02.019Z,31.22
2022-08-17T15:06:30.689Z,31.23
2022-08-17T15:08:59.433Z,31.25
2022-08-17T15:11:28.049Z,31.29
2022-08-17T15:13:57.124Z,31.34
2022-08-17T15:16:27.357Z,31.40
2022-08-17T15:18:55.932Z,31.47
2022-08-17T15:21:25.131Z,31.52
2022-08-17T15:23:53.930Z,31.51
2022-08-17T15:26:26.139Z,31.52
2022-08-17T15:28:56.757Z,31.52
2022-08-17T15:31:31.883Z,31.53
2022-08-17T15:34:01.885Z,31.54
2022-08-17T15:36:30.380Z,31.51
2022-08-17T15:38:59.276Z,31.47
2022-08-17T15:41:28.632Z,31.40
2022-08-17T15:43:57.271Z,31.34
2022-08-17T15:46:27.126Z,31.31
2022-08-17T15:49:00.475Z,31.31
2022-08-17T15:51:36.226Z,31.28
2022-08-17T15:54:19.149Z,31.26
2022-08-17T15:56:51.491Z,31.26
2022-08-17T15:59:20.662Z,31.25
2022-08-17T16:03:13.014Z,31.22
2022-08-17T16:04:43.927Z,31.19
2022-08-17T16:07:13.357Z,31.18
2022-08-17T16:09:42.327Z,31.20
2022-08-17T16:12:14.816Z,31.18
2022-08-17T16:14:44.219Z,31.19
2022-08-17T16:17:38.402Z,31.21
2022-08-17T16:20:02.953Z,31.21
2022-08-17T16:22:37.760Z,31.22
2022-08-17T16:25:20.680Z,31.22
2022-08-17T16:27:54.421Z,31.20
2022-08-17T16:30:25.655Z,31.16
2022-08-17T16:32:55.606Z,31.14
2022-08-17T16:35:27.431Z,31.11
2022-08-17T16:37:59.239Z,31.07
2022-08-17T16:40:31.332Z,31.05
2022-08-17T16:43:10.809Z,31.05
2022-08-17T16:45:41.180Z,31.05
2022-08-17T16:48:10.509Z,31.01
2022-08-17T16:50:39.315Z,30.97
2022-08-17T16:53:11.259Z,30.91
2022-08-17T16:55:40.103Z,30.84
2022-08-17T16:58:09.224Z,30.76
2022-08-17T17:00:39.397Z,30.69
2022-08-17T17:03:23.805Z,30.64
2022-08-17T17:06:37.043Z,30.57
2022-08-17T17:09:32.152Z,30.50
2022-08-17T17:12:58.156Z,30.44
2022-08-17T17:15:59.975Z,30.35
2022-08-17T17:19:12.452Z,30.26
2022-08-17T17:22:30.520Z,30.16
2022-08-17T17:25:49.688Z,30.09
2022-08-17T17:28:46.897Z,30.04
2022-08-17T17:31:47.265Z,30.00
2022-08-17T17:34:39.796Z,29.98
2022-08-17T17:37:35.523Z,29.90
2022-08-17T17:40:47.450Z,29.83
2022-08-17T17:43:42.032Z,29.73
2022-08-17T17:46:34.184Z,29.64
2022-08-17T17:49:02.808Z,29.53
2022-08-17T17:52:07.231Z,29.46
2022-08-17T17:54:51.351Z,29.35
2022-08-17T17:57:21.673Z,29.25
2022-08-17T18:00:05.575Z,29.16
2022-08-17T18:02:55.521Z,29.03
2022-08-17T18:05:44.395Z,28.95
2022-08-17T18:08:49.523Z,28.88
2022-08-17T18:11:37.684Z,28.79
2022-08-17T18:14:36.692Z,28.74
2022-08-17T18:17:06.862Z,28.65
2022-08-17T18:19:35.556Z,28.52
2022-08-17T18:22:14.005Z,28.39
2022-08-17T18:24:47.286Z,28.26
2022-08-17T18:27:31.537Z,28.19
2022-08-17T18:30:21.710Z,28.14
2022-08-17T18:32:51.003Z,28.08
2022-08-17T18:35:19.557Z,28.07
2022-08-17T18:37:49.936Z,28.07
2022-08-17T18:40:19.143Z,28.06
2022-08-17T18:43:06.257Z,28.06
2022-08-17T18:45:44.130Z,28.01
2022-08-17T18:48:21.971Z,27.95
2022-08-17T18:50:53.759Z,27.88
2022-08-17T18:53:33.187Z,27.80
2022-08-17T18:56:22.087Z,27.64
2022-08-17T18:59:10.845Z,27.48
2022-08-17T19:01:59.206Z,27.34
2022-08-17T19:04:34.789Z,27.22
2022-08-17T19:07:06.397Z,27.14
2022-08-17T19:09:40.782Z,27.14
2022-08-17T19:12:17.103Z,27.18
2022-08-17T19:14:45.739Z,27.18
2022-08-17T19:17:28.291Z,27.17
2022-08-17T19:20:09.597Z,27.14
2022-08-17T19:22:57.992Z,27.09
2022-08-17T19:25:33.088Z,27.00
2022-08-17T19:28:15.327Z,26.95
2022-08-17T19:30:56.990Z,26.92
2022-08-17T19:33:27.250Z,26.87
2022-08-17T19:36:05.225Z,26.83
2022-08-17T19:39:00.593Z,26.78
2022-08-17T19:41:45.124Z,26.74
2022-08-17T19:44:40.632Z,26.65
2022-08-17T19:47:43.073Z,26.58
2022-08-17T19:50:30.614Z,26.52
2022-08-17T19:53:20.521Z,26.49
2022-08-17T19:56:23.655Z,26.48
2022-08-17T19:59:14.289Z,26.41
2022-08-17T20:01:49.847Z,26.36
2022-08-17T20:04:31.820Z,26.37
2022-08-17T20:07:14.309Z,26.40
2022-08-17T20:10:07.005Z,26.43
2022-08-17T20:12:39.753Z,26.46
2022-08-17T20:15:26.171Z,26.47
2022-08-17T20:18:00.671Z,26.45
2022-08-17T20:20:35.302Z,26.44
2022-08-17T20:23:24.916Z,26.41
2022-08-17T20:26:09.978Z,26.37
2022-08-17T20:28:41.859Z,26.34
2022-08-17T20:31:47.975Z,26.28
2022-08-17T20:34:33.622Z,26.26
2022-08-17T20:37:26.427Z,26.22
2022-08-17T20:39:57.998Z,26.21
2022-08-17T20:42:28.162Z,26.20
2022-08-17T20:45:24.215Z,26.19
2022-08-17T20:48:30.476Z,26.15
2022-08-17T20:51:01.280Z,26.09
2022-08-17T20:53:49.668Z,26.04
2022-08-17T20:56:52.241Z,25.99
2022-08-17T20:59:26.052Z,25.93
2022-08-17T21:02:18.814Z,25.92
2022-08-17T21:04:50.980Z,25.92
2022-08-17T21:07:48.957Z,25.90
2022-08-17T21:10:38.120Z,25.88
2022-08-17T21:13:15.680Z,25.83
2022-08-17T21:15:50.550Z,25.78
2022-08-17T21:18:39.609Z,25.73
2022-08-17T21:21:37.993Z,25.69
2022-08-17T21:24:25.115Z,25.65
2022-08-17T21:27:26.627Z,25.61
2022-08-17T21:30:10.062Z,25.57
2022-08-17T21:32:43.635Z,25.53
2022-08-17T21:35:29.014Z,25.43
2022-08-17T21:38:04.692Z,25.34
2022-08-17T21:40:35.434Z,25.29
2022-08-17T21:43:23.800Z,25.29
2022-08-17T21:45:57.070Z,25.27
2022-08-17T21:48:29.765Z,25.25
2022-08-17T21:51:14.666Z,25.19
2022-08-17T21:53:43.094Z,25.14
2022-08-17T21:56:20.336Z,25.11
2022-08-17T21:58:56.362Z,25.07
2022-08-17T22:01:40.260Z,25.05
2022-08-17T22:04:11.725Z,25.06
2022-08-17T22:06:57.096Z,25.06
2022-08-17T22:09:43.809Z,24.99
2022-08-17T22:12:50.569Z,24.96
2022-08-17T22:15:20.882Z,24.93
2022-08-17T22:18:20.219Z,24.90
2022-08-17T22:20:53.093Z,24.89
2022-08-17T22:23:48.584Z,24.92
2022-08-17T22:26:18.966Z,24.89
2022-08-17T22:28:49.848Z,24.86
2022-08-17T22:31:24.998Z,24.87
2022-08-17T22:34:03.100Z,24.86
2022-08-17T22:36:37.060Z,24.83
2022-08-17T22:39:11.836Z,24.78
2022-08-17T22:41:54.281Z,24.73
2022-08-17T22:44:38.483Z,24.67
2022-08-17T22:47:14.269Z,24.65
2022-08-17T22:49:53.458Z,24.65
2022-08-17T22:52:29.185Z,24.63
2022-08-17T22:55:35.906Z,24.58
2022-08-17T22:58:32.887Z,24.49
2022-08-17T23:01:23.309Z,24.42
2022-08-17T23:03:59.238Z,24.34
2022-08-17T23:06:29.448Z,24.28
2022-08-17T23:08:58.324Z,24.26
2022-08-17T23:11:42.907Z,24.26
2022-08-17T23:14:31.862Z,24.26
2022-08-17T23:17:02.197Z,24.27
2022-08-17T23:19:32.058Z,24.25
2022-08-17T23:22:04.983Z,24.25
2022-08-17T23:24:38.277Z,24.24
2022-08-17T23:27:12.288Z,24.24
2022-08-17T23:29:42.447Z,24.25
2022-08-17T23:32:15.156Z,24.27
2022-08-17T23:34:45.322Z,24.25
2022-08-17T23:37:13.928Z,24.19
2022-08-17T23:39:45.636Z,24.15
2022-08-17T23:42:22.201Z,24.13
2022-08-17T23:44:51.031Z,24.08
2022-08-17T23:47:19.962Z,24.03
2022-08-17T23:49:49.093Z,23.95
2022-08-17T23:52:23.430Z,23.90
2022-08-17T23:54:53.028Z,23.90
2022-08-17T23:57:33.763Z,23.92
